createdAt,value
2023-05-22T00:06:44.025Z,97451.81
2023-05-22T00:16:48.899Z,97447.22
2023-05-22T00:26:51.640Z,97441.72
2023-05-22T00:36:54.118Z,97439.72
2023-05-22T00:46:57.431Z,97428.28
2023-05-22T00:57:02.769Z,97413.34
2023-05-22T01:07:06.476Z,97412.50
2023-05-22T01:17:23.624Z,97411.94
2023-05-22T01:27:43.453Z,97413.25
2023-05-22T01:37:45.944Z,97416.72
2023-05-22T01:47:49.001Z,97421.16
2023-05-22T01:58:00.156Z,97435.13
2023-05-22T02:08:02.987Z,97439.37
2023-05-22T02:18:10.908Z,97450.88
2023-05-22T02:28:13.566Z,97452.38
2023-05-22T02:38:16.158Z,97447.97
2023-05-22T02:48:19.047Z,97447.28
2023-05-22T02:58:21.741Z,97445.44
2023-05-22T03:08:24.796Z,97437.12
2023-05-22T03:18:27.692Z,97424.41
2023-05-22T03:28:30.605Z,97424.81
2023-05-22T03:38:33.076Z,97417.00
2023-05-22T03:48:35.593Z,97427.56
2023-05-22T03:58:38.064Z,97424.06
2023-05-22T04:08:40.898Z,97430.81
2023-05-22T04:18:43.484Z,97430.53
2023-05-22T04:28:46.624Z,97446.94
2023-05-22T04:38:50.685Z,97448.16
2023-05-22T04:48:53.094Z,97448.63
2023-05-22T04:59:00.385Z,97457.38
2023-05-22T05:09:02.815Z,97469.06
2023-05-22T05:19:05.249Z,97475.38
2023-05-22T05:29:07.758Z,97473.47
2023-05-22T05:39:10.212Z,97476.66
2023-05-22T05:49:13.137Z,97474.06
2023-05-22T05:59:15.921Z,97471.16
2023-05-22T06:09:19.301Z,97480.53
2023-05-22T06:19:22.093Z,97483.53
2023-05-22T06:29:24.553Z,97491.44
2023-05-22T06:39:29.162Z,97489.56
2023-05-22T06:49:33.508Z,97499.19
2023-05-22T06:59:36.380Z,97490.62
2023-05-22T07:09:39.308Z,97485.28
2023-05-22T07:19:42.593Z,97491.44
2023-05-22T07:29:45.751Z,97492.84
2023-05-22T07:39:49.532Z,97502.50
2023-05-22T07:49:52.328Z,97504.50
2023-05-22T07:59:55.444Z,97504.66
2023-05-22T08:09:58.365Z,97505.84
2023-05-22T08:20:01.661Z,97505.81
2023-05-22T08:30:05.779Z,97502.72
2023-05-22T08:40:13.430Z,97500.41
2023-05-22T08:50:17.811Z,97490.62
2023-05-22T09:00:23.894Z,97500.19
2023-05-22T09:10:27.178Z,97502.66
2023-05-22T09:20:30.176Z,97502.66
2023-05-22T09:30:37.390Z,97491.03
2023-05-22T09:40:43.897Z,97492.97
2023-05-22T09:50:49.866Z,97493.31
2023-05-22T10:00:53.349Z,97482.16
2023-05-22T10:10:58.638Z,97484.09
2023-05-22T10:21:03.877Z,97487.09
2023-05-22T10:31:23.314Z,97479.03
2023-05-22T10:41:27.565Z,97484.13
2023-05-22T10:51:33.288Z,97472.16
2023-05-22T11:01:38.956Z,97460.44
2023-05-22T11:11:42.349Z,97439.44
2023-05-22T11:21:48.311Z,97442.53
2023-05-22T11:34:16.757Z,97445.69
2023-05-22T11:44:19.744Z,97445.69
2023-05-22T11:54:23.603Z,97432.47
2023-05-22T12:04:26.837Z,97443.72
2023-05-22T12:14:31.991Z,97441.81
2023-05-22T12:24:45.108Z,97450.22
2023-05-22T12:34:48.680Z,97439.44
2023-05-22T12:44:57.490Z,97435.34
2023-05-22T12:55:00.515Z,97437.25
2023-05-22T13:05:04.192Z,97410.09
2023-05-22T13:15:08.869Z,97408.06
2023-05-22T13:25:14.190Z,97403.81
2023-05-22T13:35:17.107Z,97406.25
2023-05-22T13:45:22.030Z,97401.72
2023-05-22T13:55:25.351Z,97404.78
2023-05-22T14:05:29.125Z,97381.84
2023-05-22T14:15:32.033Z,97363.72
2023-05-22T14:25:34.722Z,97356.72
2023-05-22T14:35:38.003Z,97368.31
2023-05-22T14:45:41.478Z,97380.66
2023-05-22T14:55:44.969Z,97365.69
2023-05-22T15:05:48.537Z,97364.31
2023-05-22T15:15:51.770Z,97366.94
2023-05-22T15:25:55.296Z,97354.50
2023-05-22T15:35:58.664Z,97357.81
2023-05-22T15:46:01.854Z,97355.84
2023-05-22T15:56:09.197Z,97351.66
2023-05-22T16:06:13.042Z,97354.03
2023-05-22T16:16:24.749Z,97353.88
2023-05-22T16:26:28.744Z,97328.69
2023-05-22T16:36:32.086Z,97339.91
2023-05-22T16:46:38.303Z,97343.34
2023-05-22T16:56:41.530Z,97340.37
2023-05-22T17:06:45.003Z,97365.81
2023-05-22T17:16:50.190Z,97369.97
2023-05-22T17:26:53.361Z,97393.87
2023-05-22T17:36:57.405Z,97420.59
2023-05-22T17:47:00.899Z,97413.41
2023-05-22T17:57:06.593Z,97436.16
2023-05-22T18:07:11.038Z,97453.94
2023-05-22T18:17:14.238Z,97435.88
2023-05-22T18:27:16.932Z,97439.69
2023-05-22T18:37:20.501Z,97459.16
2023-05-22T18:47:24.088Z,97452.12
2023-05-22T18:57:28.629Z,97469.66
2023-05-22T19:07:32.234Z,97463.00
2023-05-22T19:17:35.688Z,97458.62
2023-05-22T19:27:39.998Z,97459.41
2023-05-22T19:37:44.316Z,97475.94
2023-05-22T19:47:48.221Z,97483.97
2023-05-22T19:57:51.595Z,97500.31
2023-05-22T20:07:55.389Z,97506.47
2023-05-22T20:17:59.397Z,97517.63
2023-05-22T20:28:10.365Z,97519.34
2023-05-22T20:38:15.234Z,97536.69
2023-05-22T20:48:18.538Z,97549.03
2023-05-22T20:58:23.665Z,97559.09
2023-05-22T21:08:26.677Z,97580.19
2023-05-22T21:18:32.540Z,97598.59
2023-05-22T21:28:37.778Z,97598.69
2023-05-22T21:38:40.893Z,97591.63
2023-05-22T21:48:43.735Z,97596.75
2023-05-22T21:58:46.327Z,97602.72
2023-05-22T22:08:50.968Z,97614.06
2023-05-22T22:18:54.863Z,97624.63
2023-05-22T22:28:58.591Z,97623.94
2023-05-22T22:39:01.930Z,97626.81
2023-05-22T22:49:05.453Z,97635.94
2023-05-22T22:59:08.158Z,97635.00
2023-05-22T23:09:11.575Z,97640.06
2023-05-22T23:19:14.675Z,97639.63
2023-05-22T23:29:17.158Z,97633.75
2023-05-22T23:39:20.403Z,97617.59
2023-05-22T23:49:24.381Z,97617.13
2023-05-22T23:59:27.005Z,97608.22
